Time;durP1;ratioP1;P1;durP2;ratioP2;P2;SDS_P1;SDS_P2;PMS_P1;PMS_P2;Temp;Humidity;BMP_temperature;BMP_pressure;BME280_temperature;BME280_humidity;BME280_pressure;Samples;Min_cycle;Max_cycle;Signal;HPM_P1;HPM_P2
2022/03/09 00:02:23;;;;;;;22.50;10.68;;;;;;;-0.74;56.13;100524.72;4407282;32;34633;-63
2022/03/09 00:04:51;;;;;;;24.27;11.25;;;;;;;-0.84;56.59;100522.00;4402991;32;34741;-64
2022/03/09 00:07:18;;;;;;;20.50;10.27;;;;;;;-1.00;57.18;100523.00;4407683;32;34538;-63
2022/03/09 00:09:46;;;;;;;23.58;10.98;;;;;;;-0.86;56.82;100518.41;4407783;32;33995;-63
2022/03/09 00:12:13;;;;;;;25.45;10.10;;;;;;;-1.02;57.40;100524.47;4389271;32;33822;-63
2022/03/09 00:14:41;;;;;;;22.52;10.05;;;;;;;-1.12;57.83;100537.00;4407424;32;34673;-64
2022/03/09 00:17:09;;;;;;;18.98;9.77;;;;;;;-1.05;57.58;100533.44;4406996;32;33450;-63
2022/03/09 00:19:37;;;;;;;19.05;9.35;;;;;;;-0.89;57.09;100535.87;4407667;32;33949;-63
2022/03/09 00:22:04;;;;;;;20.85;10.15;;;;;;;-1.01;57.06;100536.44;4408486;32;34749;-63
2022/03/09 00:24:35;;;;;;;24.67;10.18;;;;;;;-1.00;57.24;100543.34;4383785;32;33721;-63
2022/03/09 00:27:03;;;;;;;22.05;10.57;;;;;;;-1.02;57.30;100547.38;4407008;32;33272;-63
2022/03/09 00:29:31;;;;;;;25.00;11.27;;;;;;;-0.98;57.27;100534.97;4407498;32;33791;-64
2022/03/09 00:31:58;;;;;;;20.55;10.25;;;;;;;-1.08;57.50;100541.66;4407185;32;33970;-63
2022/03/09 00:34:26;;;;;;;23.02;9.93;;;;;;;-1.19;57.85;100539.66;4382091;32;32132;-63
2022/03/09 00:36:54;;;;;;;23.62;9.93;;;;;;;-1.24;58.28;100550.97;4407587;32;31758;-64
2022/03/09 00:39:22;;;;;;;16.55;8.93;;;;;;;-1.18;58.15;100546.53;4406964;32;33960;-64
2022/03/09 00:41:49;;;;;;;20.00;9.18;;;;;;;-1.19;58.24;100549.81;4406870;32;33838;-63
2022/03/09 00:44:17;;;;;;;19.02;9.90;;;;;;;-1.26;58.47;100543.19;4406688;32;34142;-64
2022/03/09 00:46:47;;;;;;;21.70;9.25;;;;;;;-1.25;58.34;100541.56;4407548;32;34372;-63
2022/03/09 00:49:15;;;;;;;16.95;8.93;;;;;;;-1.33;58.76;100537.31;4406111;32;33797;-64
2022/03/09 00:51:42;;;;;;;19.80;9.10;;;;;;;-1.41;58.97;100533.97;4407180;32;33789;-63
2022/03/09 00:54:10;;;;;;;21.27;8.85;;;;;;;-1.41;59.18;100532.37;4403696;32;34547;-63
2022/03/09 00:56:38;;;;;;;22.17;8.88;;;;;;;-1.63;60.29;100528.31;4390535;32;34089;-63
2022/03/09 00:59:05;;;;;;;18.17;8.32;;;;;;;-1.41;59.50;100531.44;4393390;32;32323;-64
2022/03/09 01:01:33;;;;;;;20.12;9.68;;;;;;;-0.57;56.63;100520.44;4393911;32;34686;-63
2022/03/09 01:04:01;;;;;;;20.60;9.35;;;;;;;-1.19;58.16;100524.41;4404748;32;34031;-63
2022/03/09 01:06:28;;;;;;;19.12;9.02;;;;;;;-0.97;57.79;100514.75;4409037;32;33211;-64
2022/03/09 01:08:57;;;;;;;21.50;9.48;;;;;;;-0.91;57.64;100523.00;4406270;32;33881;-63
2022/03/09 01:11:25;;;;;;;24.75;10.05;;;;;;;-0.77;57.34;100515.88;4407137;32;34755;-64
2022/03/09 01:13:52;;;;;;;19.40;8.55;;;;;;;-1.06;57.94;100507.13;4406896;32;33451;-63
2022/03/09 01:16:20;;;;;;;18.30;8.90;;;;;;;-0.96;57.91;100508.94;4407243;32;33323;-63
2022/03/09 01:18:47;;;;;;;19.92;9.00;;;;;;;-0.74;57.62;100499.28;4406886;32;33534;-63
2022/03/09 01:21:16;;;;;;;17.58;8.73;;;;;;;-1.06;58.27;100502.03;4407320;32;34010;-63
2022/03/09 01:23:45;;;;;;;18.02;8.18;;;;;;;-0.85;58.08;100499.84;4406063;32;34097;-64
2022/03/09 01:26:13;;;;;;;19.87;9.32;;;;;;;-1.00;58.51;100495.00;4406963;32;33277;-63
2022/03/09 01:28:40;;;;;;;19.27;8.35;;;;;;;-0.91;58.05;100506.84;4406759;32;33608;-64
2022/03/09 01:31:08;;;;;;;19.30;9.48;;;;;;;-0.91;57.96;100505.19;4406205;32;33965;-64
2022/03/09 01:33:35;;;;;;;19.92;9.25;;;;;;;-0.81;57.49;100499.44;4406786;32;33795;-64
2022/03/09 01:36:03;;;;;;;19.37;9.93;;;;;;;-0.77;57.42;100496.44;4408941;32;34423;-64
2022/03/09 01:38:31;;;;;;;22.00;10.75;;;;;;;-0.96;58.08;100490.25;4406579;32;33744;-63
2022/03/09 01:40:59;;;;;;;21.25;9.57;;;;;;;-0.68;57.24;100492.25;4406018;32;34529;-64
2022/03/09 01:43:27;;;;;;;18.77;9.40;;;;;;;-0.88;57.51;100513.16;4405494;32;33884;-64
2022/03/09 01:45:54;;;;;;;22.35;9.82;;;;;;;-0.91;57.58;100517.03;4407538;32;34560;-64
2022/03/09 01:48:22;;;;;;;22.13;11.15;;;;;;;-0.92;57.83;100520.34;4391600;32;34008;-64
2022/03/09 01:50:49;;;;;;;17.15;8.80;;;;;;;-0.98;58.00;100519.72;4406547;32;32735;-64
2022/03/09 01:53:18;;;;;;;21.12;10.05;;;;;;;-0.74;57.40;100522.16;4405854;32;34714;-64
2022/03/09 01:55:45;;;;;;;22.17;10.77;;;;;;;-0.90;57.91;100518.84;4406299;32;33581;-64
2022/03/09 01:58:13;;;;;;;20.98;9.70;;;;;;;-1.08;58.58;100521.31;4408878;32;34620;-64
2022/03/09 02:00:41;;;;;;;22.10;9.02;;;;;;;-1.10;58.41;100530.44;4408166;32;33813;-64
2022/03/09 02:03:08;;;;;;;23.45;10.75;;;;;;;-1.30;59.05;100530.03;4408349;32;34725;-64
2022/03/09 02:05:36;;;;;;;25.48;10.70;;;;;;;-1.36;59.45;100529.41;4408518;32;32848;-64
2022/03/09 02:10:51;;;;;;;24.80;11.30;;;;;;;-1.47;59.80;100526.66;4402449;32;33617;-64
2022/03/09 02:13:19;;;;;;;24.35;11.02;;;;;;;-1.42;59.26;100529.66;4406146;32;33835;-64
2022/03/09 02:15:46;;;;;;;21.52;10.60;;;;;;;-1.06;58.57;100537.63;4407705;32;33478;-63
2022/03/09 02:18:14;;;;;;;22.70;11.18;;;;;;;-0.91;58.12;100533.19;4408668;32;33847;-63
2022/03/09 02:20:44;;;;;;;24.63;10.93;;;;;;;-0.76;57.51;100531.28;4408187;32;34669;-63
2022/03/09 02:23:13;;;;;;;22.35;10.88;;;;;;;-0.66;57.57;100526.41;4407356;32;33651;-64
2022/03/09 02:25:43;;;;;;;22.00;10.82;;;;;;;-0.79;57.67;100515.75;4403277;32;33650;-64
2022/03/09 02:28:10;;;;;;;21.60;10.85;;;;;;;-0.68;57.28;100517.69;4406300;32;34388;-64
2022/03/09 02:30:38;;;;;;;23.52;11.20;;;;;;;0.25;55.14;100521.66;4407961;32;34070;-64
2022/03/09 02:33:06;;;;;;;25.70;12.37;;;;;;;1.06;52.68;100520.88;4409511;32;34283;-64
2022/03/09 02:35:33;;;;;;;24.37;12.18;;;;;;;-0.85;58.02;100532.91;4408776;32;33396;-63
2022/03/09 02:38:01;;;;;;;24.70;12.13;;;;;;;-1.20;59.17;100531.13;4407200;32;34737;-63
2022/03/09 02:40:28;;;;;;;25.37;11.88;;;;;;;-1.36;59.98;100529.41;4407417;32;33604;-64
2022/03/09 02:42:56;;;;;;;29.35;12.43;;;;;;;-1.13;59.98;100535.19;4408304;32;33953;-64
2022/03/09 02:45:23;;;;;;;27.62;12.15;;;;;;;-1.08;60.36;100528.94;4406988;32;33691;-63
2022/03/09 02:47:51;;;;;;;25.15;12.25;;;;;;;-0.88;60.19;100532.63;4407196;32;33651;-63
2022/03/09 02:50:18;;;;;;;27.48;11.82;;;;;;;-0.96;59.65;100533.47;4408608;32;33969;-63
2022/03/09 02:52:46;;;;;;;23.55;9.82;;;;;;;-1.03;59.40;100532.84;4406282;32;34537;-63
2022/03/09 02:55:14;;;;;;;21.10;10.27;;;;;;;-0.71;58.68;100537.75;4408514;32;33391;-63
2022/03/09 02:57:42;;;;;;;19.98;9.32;;;;;;;-0.72;58.44;100541.03;4407001;32;33776;-63
2022/03/09 03:00:11;;;;;;;18.12;9.32;;;;;;;-0.69;58.28;100540.47;4408234;32;33514;-64
2022/03/09 03:02:39;;;;;;;19.40;8.73;;;;;;;-0.64;58.00;100540.19;4406424;32;33786;-64
2022/03/09 03:05:08;;;;;;;20.85;8.98;;;;;;;-0.35;57.35;100528.56;4388372;32;33549;-64
2022/03/09 03:07:36;;;;;;;18.95;8.52;;;;;;;-0.53;57.62;100527.63;4390115;32;33694;-63
2022/03/09 03:10:05;;;;;;;22.58;9.50;;;;;;;-0.62;57.90;100527.59;4403878;32;34817;-64
2022/03/09 03:12:32;;;;;;;20.55;9.27;;;;;;;-0.75;58.13;100527.09;4408198;32;33619;-63
2022/03/09 03:15:00;;;;;;;19.85;9.98;;;;;;;-0.61;57.71;100509.94;4407993;32;33483;-64
2022/03/09 03:17:28;;;;;;;21.95;10.80;;;;;;;-0.69;58.03;100505.75;4407712;32;33710;-64
2022/03/09 03:19:56;;;;;;;21.73;10.73;;;;;;;-0.92;58.58;100505.06;4408209;32;34578;-63
2022/03/09 03:22:23;;;;;;;22.05;10.93;;;;;;;-0.82;58.14;100492.53;4407623;32;33889;-64
2022/03/09 03:24:51;;;;;;;24.37;10.45;;;;;;;-0.71;57.86;100507.22;4401197;32;33623;-63
2022/03/09 03:27:18;;;;;;;25.27;11.48;;;;;;;-0.56;57.57;100506.94;4408901;32;33822;-64
2022/03/09 03:29:46;;;;;;;28.15;12.25;;;;;;;0.02;55.60;100510.16;4405851;32;33997;-64
2022/03/09 03:32:13;;;;;;;25.65;12.60;;;;;;;-0.63;57.26;100511.44;4407957;32;34351;-64
2022/03/09 03:34:41;;;;;;;22.87;11.85;;;;;;;-0.36;57.11;100512.38;4407478;32;33325;-63
2022/03/09 03:37:08;;;;;;;28.52;13.02;;;;;;;-0.58;57.72;100503.34;4407973;32;33547;-64
2022/03/09 03:39:36;;;;;;;24.45;11.15;;;;;;;-0.57;57.93;100505.16;4393901;32;33267;-64
2022/03/09 03:42:04;;;;;;;24.20;11.80;;;;;;;-0.69;58.37;100515.03;4407198;32;34473;-64
2022/03/09 03:44:31;;;;;;;26.37;10.57;;;;;;;-0.24;57.55;100518.69;4407440;32;33474;-64
2022/03/09 03:46:59;;;;;;;24.73;11.35;;;;;;;-0.68;58.10;100512.59;4407987;32;34861;-64
2022/03/09 03:49:26;;;;;;;25.12;11.40;;;;;;;-0.65;57.98;100507.84;4406880;32;34532;-64
2022/03/09 03:51:56;;;;;;;24.20;10.82;;;;;;;-0.46;57.74;100513.12;4406955;32;33721;-64
2022/03/09 03:54:23;;;;;;;24.70;10.43;;;;;;;-0.33;57.36;100510.16;4406213;32;34170;-63
2022/03/09 03:56:51;;;;;;;25.92;10.93;;;;;;;-0.22;57.27;100522.28;4406186;32;34782;-63
2022/03/09 03:59:18;;;;;;;23.65;10.60;;;;;;;-0.26;57.16;100517.63;4406939;32;33856;-64
2022/03/09 04:01:46;;;;;;;22.60;10.32;;;;;;;-0.25;57.45;100521.06;4407795;32;34063;-64
2022/03/09 04:04:14;;;;;;;17.58;8.85;;;;;;;-0.40;57.63;100515.37;4407802;32;33601;-64
2022/03/09 04:06:41;;;;;;;19.12;8.52;;;;;;;-0.74;59.00;100512.00;4405949;32;33872;-63
2022/03/09 04:09:09;;;;;;;21.20;10.20;;;;;;;-0.43;58.22;100515.06;4407402;32;33875;-63
2022/03/09 04:11:37;;;;;;;19.17;9.27;;;;;;;-0.56;58.58;100509.50;4406921;32;33837;-63
2022/03/09 04:14:04;;;;;;;27.17;12.00;;;;;;;-0.54;58.50;100510.53;4407142;32;33652;-64
2022/03/09 04:16:31;;;;;;;28.75;11.93;;;;;;;-0.60;58.42;100506.66;4408220;32;33697;-63
2022/03/09 04:18:59;;;;;;;24.23;11.70;;;;;;;-0.35;57.74;100506.53;4406365;32;33835;-64
2022/03/09 04:21:27;;;;;;;25.85;11.12;;;;;;;-0.17;56.89;100510.00;4388546;32;34507;-64
2022/03/09 04:23:54;;;;;;;21.83;10.85;;;;;;;-0.20;56.74;100497.84;4406390;32;31834;-64
2022/03/09 04:26:22;;;;;;;22.02;10.68;;;;;;;0.31;55.30;100507.91;4407082;32;34351;-64
2022/03/09 04:28:50;;;;;;;25.62;10.57;;;;;;;0.82;53.56;100505.06;4406567;32;34650;-64
2022/03/09 04:31:17;;;;;;;27.00;11.77;;;;;;;0.53;54.45;100510.84;4406746;32;34479;-64
2022/03/09 04:33:46;;;;;;;25.48;12.35;;;;;;;0.53;54.30;100499.75;4394215;32;31999;-63
2022/03/09 04:36:14;;;;;;;28.83;12.00;;;;;;;0.15;55.57;100513.12;4407149;32;33738;-64
2022/03/09 04:38:42;;;;;;;28.17;13.00;;;;;;;0.05;55.85;100518.09;4406723;32;34026;-63
2022/03/09 04:41:10;;;;;;;22.50;12.02;;;;;;;-0.13;56.24;100522.28;4406531;32;34622;-63
2022/03/09 04:43:38;;;;;;;23.05;12.23;;;;;;;-0.16;56.61;100521.09;4407560;32;33333;-64
2022/03/09 04:46:05;;;;;;;30.15;12.80;;;;;;;-0.02;56.44;100520.78;4407096;32;33919;-64
2022/03/09 04:48:34;;;;;;;22.35;11.43;;;;;;;-0.35;57.33;100506.53;4407449;32;33983;-63
2022/03/09 04:51:02;;;;;;;26.17;12.05;;;;;;;-0.15;56.95;100507.63;4406098;32;33913;-64
2022/03/09 04:53:30;;;;;;;25.33;12.37;;;;;;;0.24;55.77;100513.12;4407284;32;34087;-63
2022/03/09 04:55:58;;;;;;;28.60;13.05;;;;;;;0.13;56.33;100517.19;4407207;32;34620;-63
2022/03/09 04:58:27;;;;;;;27.15;13.45;;;;;;;-0.15;57.32;100523.78;4408005;32;33862;-64
2022/03/09 05:00:54;;;;;;;27.85;13.43;;;;;;;0.04;57.56;100535.75;4404975;32;34784;-64
2022/03/09 05:03:22;;;;;;;28.25;13.43;;;;;;;-0.02;57.46;100520.78;4407680;32;33338;-63
2022/03/09 05:05:49;;;;;;;27.80;13.05;;;;;;;-0.09;57.70;100518.41;4400953;32;34640;-64
2022/03/09 05:08:17;;;;;;;27.33;11.57;;;;;;;-0.15;57.32;100517.81;4407472;32;34029;-63
2022/03/09 05:10:45;;;;;;;28.25;12.37;;;;;;;-0.39;57.96;100506.97;4406486;32;34022;-64
2022/03/09 05:13:14;;;;;;;33.22;11.95;;;;;;;-0.27;57.66;100498.03;4407228;32;33465;-64
2022/03/09 05:15:41;;;;;;;27.08;11.85;;;;;;;-0.12;57.08;100498.59;4388499;32;33761;-63
2022/03/09 05:18:09;;;;;;;26.83;13.30;;;;;;;0.21;56.06;100504.28;4407395;32;34041;-63
2022/03/09 05:20:36;;;;;;;23.02;11.70;;;;;;;1.04;54.11;100499.41;4405685;32;33548;-64
2022/03/09 05:23:04;;;;;;;28.42;13.90;;;;;;;1.86;51.89;100497.56;4407434;32;33625;-64
2022/03/09 05:25:32;;;;;;;27.52;13.75;;;;;;;1.01;52.87;100499.16;4407639;32;33774;-64
2022/03/09 05:28:01;;;;;;;27.50;11.55;;;;;;;0.15;55.76;100510.59;4406367;32;33898;-63
2022/03/09 05:30:28;;;;;;;30.92;14.25;;;;;;;0.06;56.09;100508.78;4391923;32;33057;-63
2022/03/09 05:32:56;;;;;;;27.90;14.80;;;;;;;0.35;56.03;100509.09;4405669;32;33605;-63
2022/03/09 05:35:24;;;;;;;28.15;14.18;;;;;;;0.37;55.70;100512.69;4407079;32;34343;-64
2022/03/09 05:37:51;;;;;;;26.52;12.35;;;;;;;0.33;55.92;100510.59;4406570;32;33732;-64
2022/03/09 05:40:19;;;;;;;26.23;12.57;;;;;;;0.36;55.42;100523.62;4405845;32;33775;-63
2022/03/09 05:42:46;;;;;;;29.23;12.35;;;;;;;0.08;56.57;100523.50;4407532;32;34062;-64
2022/03/09 05:45:19;;;;;;;26.90;12.75;;;;;;;0.13;56.61;100517.19;4405972;32;34001;-64
2022/03/09 05:47:51;;;;;;;31.08;13.55;;;;;;;-0.01;57.25;100518.37;4405869;32;34170;-64
2022/03/09 05:50:19;;;;;;;28.40;13.62;;;;;;;-0.12;58.22;100523.19;4409926;32;34251;-63
2022/03/09 05:52:47;;;;;;;32.33;13.43;;;;;;;0.72;56.12;100522.81;4406218;32;33532;-63
2022/03/09 05:55:14;;;;;;;26.67;12.52;;;;;;;1.10;55.04;100528.97;4402662;32;33670;-63
2022/03/09 05:57:42;;;;;;;23.17;12.57;;;;;;;1.20;54.01;100540.94;4400324;32;34664;-63
2022/03/09 06:00:10;;;;;;;25.92;11.80;;;;;;;1.19;54.50;100544.22;4402414;32;33915;-64
2022/03/09 06:02:37;;;;;;;26.45;12.02;;;;;;;1.57;52.59;100547.78;4407321;32;33107;-64
2022/03/09 06:05:06;;;;;;;23.60;11.00;;;;;;;2.06;51.66;100558.13;4390877;32;33183;-64
2022/03/09 06:07:33;;;;;;;25.23;11.32;;;;;;;1.89;51.25;100554.03;4406583;32;34012;-64
2022/03/09 06:10:01;;;;;;;27.23;11.85;;;;;;;1.80;51.46;100563.41;4402998;32;34453;-63
2022/03/09 06:12:29;;;;;;;29.63;12.48;;;;;;;1.47;52.18;100579.97;4385409;32;34179;-64
2022/03/09 06:14:57;;;;;;;27.15;12.57;;;;;;;0.98;53.93;100582.28;4383416;32;33314;-64
2022/03/09 06:17:31;;;;;;;27.13;13.27;;;;;;;0.42;55.08;100587.91;4406108;32;33719;-64
2022/03/09 06:19:58;;;;;;;27.33;13.07;;;;;;;0.14;55.98;100582.69;4405153;32;33872;-63
2022/03/09 06:22:26;;;;;;;28.50;14.30;;;;;;;0.26;56.19;100579.53;4406302;32;33460;-63
2022/03/09 06:24:53;;;;;;;31.25;14.57;;;;;;;0.32;56.27;100590.34;4402321;32;34626;-63
2022/03/09 06:27:21;;;;;;;29.58;13.32;;;;;;;0.26;56.57;100584.62;4401422;32;34613;-63
2022/03/09 06:29:48;;;;;;;28.10;12.95;;;;;;;0.47;56.22;100581.62;4404096;32;32440;-63
2022/03/09 06:32:16;;;;;;;27.98;13.00;;;;;;;0.70;55.63;100588.06;4388613;32;34316;-63
2022/03/09 06:34:44;;;;;;;28.48;13.18;;;;;;;0.74;55.55;100583.38;4403411;32;33436;-66
2022/03/09 06:37:11;;;;;;;25.95;12.35;;;;;;;0.90;55.07;100583.19;4401726;32;33610;-64
2022/03/09 06:39:39;;;;;;;28.90;12.37;;;;;;;1.07;54.29;100578.81;4402084;32;34788;-64
2022/03/09 06:42:06;;;;;;;30.48;13.48;;;;;;;1.22;54.14;100585.34;4400379;32;32176;-65
2022/03/09 06:44:35;;;;;;;29.98;12.63;;;;;;;1.22;53.95;100585.34;4403755;32;34048;-64
2022/03/09 06:47:04;;;;;;;30.73;13.20;;;;;;;1.43;53.63;100580.44;4400608;32;33612;-65
2022/03/09 06:49:31;;;;;;;23.75;12.60;;;;;;;1.26;53.86;100574.69;4405147;32;33461;-64
2022/03/09 06:51:59;;;;;;;25.10;12.07;;;;;;;1.83;52.87;100573.91;4388024;32;33254;-65
2022/03/09 06:54:27;;;;;;;30.17;12.88;;;;;;;1.63;53.62;100575.53;4403756;32;34835;-63
2022/03/09 06:56:55;;;;;;;30.23;13.10;;;;;;;2.22;52.79;100580.84;4406261;32;33595;-63
2022/03/09 06:59:23;;;;;;;27.33;12.82;;;;;;;2.26;52.79;100572.69;4405989;32;33539;-63
2022/03/09 07:01:50;;;;;;;28.10;13.55;;;;;;;2.09;52.85;100589.97;4404527;32;33106;-64
2022/03/09 07:04:18;;;;;;;28.42;12.82;;;;;;;2.71;51.15;100585.25;4406205;32;34479;-63
2022/03/09 07:06:46;;;;;;;26.95;13.68;;;;;;;3.59;49.63;100580.88;4406303;32;33972;-63
2022/03/09 07:09:14;;;;;;;28.65;13.48;;;;;;;2.47;50.66;100589.97;4405286;32;33613;-63
2022/03/09 07:11:42;;;;;;;25.77;13.65;;;;;;;1.82;53.95;100592.56;4407926;32;33483;-63
2022/03/09 07:14:09;;;;;;;25.70;12.32;;;;;;;2.78;51.43;100592.66;4403306;32;34645;-63
2022/03/09 07:16:37;;;;;;;28.15;14.45;;;;;;;2.51;51.99;100594.59;4406203;32;34845;-61
2022/03/09 07:19:05;;;;;;;32.42;13.98;;;;;;;2.49;52.12;100593.56;4406188;32;35247;-63
2022/03/09 07:21:33;;;;;;;30.27;14.00;;;;;;;2.80;51.51;100597.94;4407194;32;34246;-64
2022/03/09 07:24:00;;;;;;;27.60;13.52;;;;;;;2.57;51.88;100607.03;4407599;32;33554;-65
2022/03/09 07:26:28;;;;;;;31.87;14.50;;;;;;;2.61;52.22;100608.19;4403984;32;34001;-62
2022/03/09 07:28:56;;;;;;;33.17;14.25;;;;;;;1.95;53.18;100621.03;4408000;32;33828;-63
2022/03/09 07:31:24;;;;;;;27.98;14.73;;;;;;;2.72;51.94;100622.84;4406654;32;35302;-63
2022/03/09 07:33:52;;;;;;;28.50;14.40;;;;;;;2.00;53.29;100619.78;4386230;32;34692;-63
2022/03/09 07:36:19;;;;;;;31.52;14.45;;;;;;;2.25;53.00;100617.81;4407700;32;34620;-64
2022/03/09 07:38:47;;;;;;;29.65;14.27;;;;;;;2.21;52.94;100615.75;4392803;32;33809;-64
2022/03/09 07:41:35;;;;;;;30.37;15.15;;;;;;;1.88;53.65;100608.47;4402994;32;33327;-63
2022/03/09 07:44:04;;;;;;;28.00;14.63;;;;;;;1.72;53.94;100586.63;4406464;32;33913;-63
2022/03/09 07:46:32;;;;;;;29.52;14.35;;;;;;;1.73;54.46;100575.63;4392071;32;33581;-64
2022/03/09 07:49:02;;;;;;;31.80;14.65;;;;;;;1.70;54.87;100562.59;4406736;32;33740;-65
2022/03/09 07:51:30;;;;;;;31.77;15.75;;;;;;;1.99;54.07;100572.03;4411793;32;33455;-62
2022/03/09 07:53:58;;;;;;;27.87;14.13;;;;;;;2.04;54.05;100569.88;4392463;32;32360;-63
2022/03/09 07:56:25;;;;;;;33.05;14.57;;;;;;;2.12;53.68;100585.13;4387879;32;33639;-62
2022/03/09 07:58:54;;;;;;;35.33;15.77;;;;;;;3.11;52.24;100588.72;4398808;32;33492;-62
2022/03/09 08:01:21;;;;;;;30.15;14.77;;;;;;;2.53;52.56;100585.41;4401502;32;33191;-60
2022/03/09 08:03:49;;;;;;;30.62;14.02;;;;;;;2.45;53.81;100581.25;4403923;32;33622;-63
2022/03/09 08:06:17;;;;;;;32.75;15.43;;;;;;;2.86;52.82;100571.25;4407223;32;33886;-60
2022/03/09 08:08:44;;;;;;;33.75;16.70;;;;;;;3.05;53.34;100567.72;4406488;32;35051;-61
2022/03/09 08:11:13;;;;;;;28.67;13.77;;;;;;;3.03;52.88;100561.56;4405182;32;33169;-62
2022/03/09 08:13:40;;;;;;;32.83;16.20;;;;;;;2.91;53.40;100559.72;4406343;32;33676;-61
2022/03/09 08:16:11;;;;;;;31.12;16.42;;;;;;;2.51;54.17;100576.72;4405662;32;34095;-60
2022/03/09 08:18:39;;;;;;;32.63;14.90;;;;;;;2.32;54.12;100578.38;4415072;32;34887;-62
2022/03/09 08:21:06;;;;;;;28.77;14.80;;;;;;;2.82;52.64;100579.41;4393565;32;34228;-62
2022/03/09 08:23:34;;;;;;;33.13;15.73;;;;;;;3.39;52.65;100563.81;4407132;32;34607;-62
2022/03/09 08:26:02;;;;;;;29.20;15.50;;;;;;;3.39;51.83;100561.25;4402553;32;34396;-61
2022/03/09 08:28:30;;;;;;;30.70;14.85;;;;;;;3.76;51.67;100568.63;4404967;32;34256;-61
2022/03/09 08:30:58;;;;;;;36.78;15.27;;;;;;;3.46;52.09;100553.34;4406021;32;34399;-61
2022/03/09 08:33:26;;;;;;;28.48;13.90;;;;;;;3.12;52.21;100555.56;4391881;32;33281;-61
2022/03/09 08:35:54;;;;;;;27.58;15.13;;;;;;;4.44;50.26;100549.41;4406040;32;34045;-61
2022/03/09 08:38:21;;;;;;;28.08;15.35;;;;;;;3.97;50.27;100560.16;4405945;32;33770;-62
2022/03/09 08:40:49;;;;;;;33.38;16.30;;;;;;;3.79;51.29;100553.50;4390116;32;33496;-60
2022/03/09 08:43:18;;;;;;;31.90;14.70;;;;;;;3.34;52.50;100542.97;4404811;32;34614;-60
2022/03/09 08:45:45;;;;;;;29.50;13.30;;;;;;;3.87;51.14;100544.78;4404159;32;33664;-60
2022/03/09 08:48:13;;;;;;;27.77;14.65;;;;;;;4.06;50.24;100548.09;4403301;32;33671;-61
2022/03/09 08:50:41;;;;;;;32.63;15.90;;;;;;;3.65;51.53;100549.75;4403617;32;33486;-61
2022/03/09 08:53:09;;;;;;;32.15;16.90;;;;;;;3.98;51.22;100544.00;4403208;32;34515;-61
2022/03/09 08:55:38;;;;;;;30.12;15.52;;;;;;;4.07;51.11;100547.31;4404697;32;33919;-62
2022/03/09 08:58:05;;;;;;;30.58;14.30;;;;;;;3.62;52.09;100550.41;4405623;32;33603;-61
2022/03/09 09:00:33;;;;;;;29.20;15.13;;;;;;;4.47;50.15;100536.84;4404853;32;34125;-62
2022/03/09 09:03:01;;;;;;;32.38;15.07;;;;;;;4.35;49.72;100534.19;4403891;32;32634;-61
2022/03/09 09:05:29;;;;;;;24.85;13.70;;;;;;;4.38;49.65;100529.28;4402251;32;34009;-61
2022/03/09 09:07:57;;;;;;;28.35;14.20;;;;;;;4.56;49.45;100532.47;4405153;32;34746;-61
2022/03/09 09:10:34;;;;;;;26.50;14.02;;;;;;;4.40;49.98;100532.88;4390308;32;33393;-62
2022/03/09 09:13:02;;;;;;;27.25;14.07;;;;;;;4.47;49.46;100527.47;4404707;32;33734;-60
2022/03/09 09:15:30;;;;;;;29.27;14.77;;;;;;;4.39;50.00;100520.84;4391450;32;33989;-60
2022/03/09 09:18:00;;;;;;;27.87;14.18;;;;;;;4.02;50.85;100525.53;4403904;32;33811;-61
2022/03/09 09:20:47;;;;;;;21.73;11.40;;;;;;;4.87;49.36;100507.56;4397006;32;33257;-61
2022/03/09 09:23:15;;;;;;;24.85;14.40;;;;;;;4.70;49.59;100518.16;4403913;32;33547;-61
2022/03/09 09:25:44;;;;;;;22.48;12.48;;;;;;;4.48;49.68;100501.06;4392490;32;33219;-60
2022/03/09 09:28:12;;;;;;;26.55;14.35;;;;;;;4.62;49.44;100514.09;4388588;32;33653;-63
2022/03/09 09:30:40;;;;;;;25.23;13.20;;;;;;;4.49;50.16;100507.09;4386873;32;33787;-61
2022/03/09 09:33:08;;;;;;;27.15;13.80;;;;;;;4.73;50.27;100510.69;4405533;32;34624;-61
2022/03/09 09:35:36;;;;;;;20.70;11.38;;;;;;;5.44;48.02;100503.34;4388220;32;33273;-61
2022/03/09 09:38:08;;;;;;;23.02;12.45;;;;;;;5.39;47.56;100509.78;4390874;32;33903;-60
2022/03/09 09:40:43;;;;;;;34.30;15.75;;;;;;;5.13;48.00;100506.13;4405574;32;32974;-61
2022/03/09 09:43:12;;;;;;;;;;;;;;;5.48;47.68;100500.22;4404313;32;34650;-61
2022/03/09 09:45:40;;;;;;;22.00;12.35;;;;;;;5.68;46.85;100500.06;4403176;32;34176;-63
2022/03/09 09:48:09;;;;;;;22.30;10.40;;;;;;;5.51;47.12;100508.19;4398695;32;33685;-63
2022/03/09 09:50:38;;;;;;;23.98;11.12;;;;;;;5.50;47.63;100506.38;4402700;32;33328;-65
2022/03/09 09:53:08;;;;;;;17.75;10.20;;;;;;;5.85;46.71;100510.72;4390762;32;34041;-63
2022/03/09 09:55:37;;;;;;;23.00;12.13;;;;;;;6.05;46.23;100512.25;4404267;32;33014;-62
2022/03/09 09:58:05;;;;;;;28.30;13.13;;;;;;;6.49;45.80;100507.78;4401813;32;34089;-61
2022/03/09 10:00:32;;;;;;;21.62;10.88;;;;;;;6.72;44.81;100508.50;4401419;32;33295;-61
2022/03/09 10:03:04;;;;;;;17.42;9.63;;;;;;;6.54;44.71;100504.63;4379344;32;33944;-61
2022/03/09 10:05:32;;;;;;;21.87;12.35;;;;;;;6.70;44.01;100507.50;4402431;32;33768;-62
2022/03/09 10:08:02;;;;;;;22.30;12.50;;;;;;;6.50;45.14;100496.66;4404842;32;33508;-62
2022/03/09 10:10:39;;;;;;;23.77;10.48;;;;;;;6.62;44.79;100498.34;4403777;32;33362;-62
2022/03/09 10:13:16;;;;;;;20.08;11.32;;;;;;;6.97;43.67;100485.38;4404533;32;33897;-62
2022/03/09 10:15:47;;;;;;;21.25;11.23;;;;;;;6.78;44.53;100490.94;4405118;32;33955;-62
2022/03/09 10:18:19;;;;;;;17.83;8.52;;;;;;;7.35;43.97;100491.41;4402632;32;33863;-62
2022/03/09 10:20:49;;;;;;;20.23;10.13;;;;;;;7.27;42.97;100483.16;4406111;32;33108;-62
2022/03/09 10:23:18;;;;;;;20.23;10.43;;;;;;;7.25;43.67;100490.78;4396254;32;33511;-63
2022/03/09 10:25:49;;;;;;;14.87;7.35;;;;;;;7.20;43.53;100483.50;4401251;32;33786;-61
2022/03/09 10:28:16;;;;;;;12.90;7.78;;;;;;;7.78;42.45;100481.41;4399318;32;33727;-64
2022/03/09 10:30:44;;;;;;;17.27;9.07;;;;;;;7.79;42.27;100475.47;4405033;32;34363;-64
2022/03/09 10:33:13;;;;;;;15.57;9.10;;;;;;;8.17;41.31;100464.19;4406248;32;33942;-63
2022/03/09 10:35:46;;;;;;;16.87;9.40;;;;;;;8.06;42.09;100472.13;4407003;32;34681;-62
2022/03/09 10:38:16;;;;;;;19.33;9.00;;;;;;;8.11;42.67;100461.22;4389423;32;33854;-63
2022/03/09 10:40:47;;;;;;;15.32;9.02;;;;;;;8.34;41.54;100453.25;4405855;32;33601;-63
2022/03/09 10:43:16;;;;;;;25.75;11.15;;;;;;;8.21;41.73;100438.69;4406636;32;34447;-63
2022/03/09 10:46:12;;;;;;;17.12;8.90;;;;;;;8.41;42.30;100440.00;4405506;32;33928;-63
2022/03/09 10:48:56;;;;;;;19.67;9.90;;;;;;;8.66;41.77;100442.44;4406956;32;34055;-65
2022/03/09 10:51:35;;;;;;;19.27;9.97;;;;;;;8.98;41.42;100434.88;4406659;32;34263;-63
2022/03/09 10:54:22;;;;;;;13.68;8.27;;;;;;;9.43;40.52;100441.06;4405442;32;33809;-68
2022/03/09 10:56:51;;;;;;;24.12;11.57;;;;;;;9.31;40.81;100424.78;4404684;32;34227;-67
2022/03/09 10:59:21;;;;;;;23.45;11.63;;;;;;;8.80;42.10;100425.19;4406339;32;34479;-64
2022/03/09 11:02:08;;;;;;;19.48;11.18;;;;;;;9.21;41.00;100429.44;4405754;32;34917;-64
2022/03/09 11:04:38;;;;;;;17.80;10.70;;;;;;;9.05;41.32;100422.44;4406669;32;33889;-64
2022/03/09 11:07:06;;;;;;;21.42;10.75;;;;;;;9.16;41.16;100428.25;4393385;32;34735;-65
2022/03/09 11:09:35;;;;;;;22.33;12.43;;;;;;;9.02;41.45;100423.94;4405839;32;34764;-65
2022/03/09 11:12:04;;;;;;;20.40;11.40;;;;;;;8.84;42.24;100423.69;4406290;32;33328;-66
2022/03/09 11:14:31;;;;;;;21.75;11.38;;;;;;;9.44;41.09;100422.12;4404718;32;34533;-65
2022/03/09 11:17:00;;;;;;;20.60;11.48;;;;;;;9.71;40.16;100416.81;4406424;32;34673;-63
2022/03/09 11:19:29;;;;;;;22.60;12.40;;;;;;;9.88;40.14;100418.66;4405634;32;33552;-65
2022/03/09 11:21:56;;;;;;;21.05;11.65;;;;;;;9.87;40.14;100419.50;4406964;32;34309;-66
2022/03/09 11:24:24;;;;;;;23.62;13.55;;;;;;;9.53;40.61;100422.69;4405477;32;33647;-66
2022/03/09 11:26:56;;;;;;;24.27;12.15;;;;;;;9.31;41.25;100420.53;4407078;32;33424;-67